Terminal Aerodrome Forecast
Issued by NWS

Home | Current Version | Previous Version | Text Only | Print | Product List | Glossary On
Versions: 1 2 3 4 5 6 7 8 9 10 11 12 13 14 15 16 17 18 19 20
000
FTUS43 KMPX 212300
TAFRNH
TAF
KRNH 212334Z 2200/2224 12006KT P6SM SKC
     FM221400 15012G19KT P6SM SCT050 BKN200
     FM221900 16014G21KT P6SM BKN050 BKN120=

USA.gov is the U.S. government's official web portal to all federal, state and local government web resources and services.